Weerspreuk van de dag     Is april schoon en rein, dan zal mei minder zijn.
Het weer levert geen direct gevaar op.    Er zijn geen waarschuwingen afgegeven.


Onweer radar Meer informatie blitzortung!


Regen radar Meer informatie rain snow radar


Bekijk deze sites ook eens:

FPL Automotive (TIP)

Autostekkers.nl (TIP)

Over Luyksgestel

BOL.com

Weerstation Noordbergum

Inktweb

Drone kopen?

Weerstation Hapert

Parfumswinkel TIP

Weerstation Hoogeloon

Beleef de Lente

Weerstation Son&Breugel

Weerstation Castaert

Kamera Express

Smartphonehoesjes

Weerstation Tilburg Reeshof

Weerstation Scheulder

Samostour webcams

Weerverwachting Samos

Samos actueel

Weerwoord (forum)

Griekenlandforum

Vakantie naar Samos

Benelux-weerman

Zomerzon

Cameraland



METAR rapporten vliegvelden

   
EBAW - Antwerp
Gewijzigd: 21-04-2018 01:50
Nevel, Bewolking  
Nevel, Bewolking  
   Wind: NW 5.6 km/h
Wind: NW 5.6 km/h
Temperatuur: 13°C
Dauwpunt: 10°C
Vochtigheid: 82%
Barometer: 1022 hPa
Bewolking: Bewolking
Zicht: 4 km
Bewolking: Bewolking 200 ft
EBAW 202350Z AUTO 32003KT 4300 BR VV002 13/10 Q1022
EBLG - Liège
Gewijzigd: 21-04-2018 01:50
Helder  
Helder  
   Wind: varieert 1.9 km/h
Wind: varieert 1.9 km/h
Temperatuur: 16°C
Dauwpunt: 8°C
Vochtigheid: 59%
Barometer: 1022 hPa
Zicht: meer dan 10 km
Bewolking: Helder
EBLG 202350Z VRB01KT CAVOK 16/08 Q1022 NOSIG
EBCV - Mons/Bergen
Gewijzigd: 21-04-2018 01:55
Nevel, Helder  
Nevel, Helder  
   Wind: varieert 3.7 km/h
Wind: varieert 3.7 km/h
Temperatuur: 13°C
Dauwpunt: 11°C
Vochtigheid: 88%
Barometer: 1023 hPa
Bewolking: Helder
Zicht: 3 km
Bewolking: Helder
EBCV 202355Z AUTO VRB02KT 3100 BR NCD 13/11 Q1023 YLO
EHBK - Maastricht
Gewijzigd: 21-04-2018 01:55
Gedeeltelijk bewolkt  
Gedeeltelijk bewolkt  
   Wind: varieert 1.9 km/h
Wind: varieert 1.9 km/h
Temperatuur: 15°C
Dauwpunt: 10°C
Vochtigheid: 72%
Barometer: 1022 hPa
Bewolking: Gedeeltelijk bewolkt
Zicht: meer dan 10 km
Bewolking: Gedeeltelijk bewolkt
EHBK 202355Z AUTO VRB01KT 9999 NSC 15/10 Q1022
ELLX - Luxemburg
Gewijzigd: 21-04-2018 01:50
Helder  
Helder  
   Wind: NNO 24.1 km/h
Wind: NNO 24.1 km/h
Temperatuur: 19°C
Dauwpunt: 10°C
Vochtigheid: 56%
Barometer: 1021 hPa
Zicht: meer dan 10 km
Bewolking: Helder
ELLX 202350Z 02013KT CAVOK 19/10 Q1021 NOSIG
EBOS - Oostende
Gewijzigd: 21-04-2018 01:50
Nevel, Gedeeltelijk bewolkt  
Nevel, Gedeeltelijk bewolkt  
   Wind: varieert 3.7 km/h
Wind: varieert 3.7 km/h
Temperatuur: 10°C
Dauwpunt: 7°C
Vochtigheid: 82%
Barometer: 1023 hPa
Bewolking: Gedeeltelijk bewolkt
Zicht: 5 km
Bewolking: Gedeeltelijk bewolkt
EBOS 202350Z VRB02KT 4500 BR NSC 10/07 Q1023 NOSIG

Script ontwikkeld door  Saratoga-weather.org Aangepast voor de template door  Weerstation Leuven

U vindt ons ook hier:

UK Metoffice

European Weather Network

Weather Underground

AWEKAS